Time;durP1;ratioP1;P1;durP2;ratioP2;P2;SDS_P1;SDS_P2;PMS_P1;PMS_P2;Temp;Humidity;BMP_temperature;BMP_pressure;BME280_temperature;BME280_humidity;BME280_pressure;Samples;Min_cycle;Max_cycle;Signal;HPM_P1;HPM_P2
2023/06/28 00:00:03;;;;;;;1.20;0.80;;;;;;;18.55;100.00;98661.16;104755;1267;66252;-50
2023/06/28 00:02:42;;;;;;;0.70;0.70;;;;;;;18.53;100.00;98657.52;105435;1258;72049;-51
2023/06/28 00:05:10;;;;;;;0.90;0.60;;;;;;;18.53;100.00;98659.54;105566;1258;62201;-50
2023/06/28 00:07:39;;;;;;;0.70;0.60;;;;;;;18.52;100.00;98661.86;105365;1265;61608;-51
2023/06/28 00:10:07;;;;;;;1.10;0.60;;;;;;;18.50;100.00;98654.43;105437;1263;72885;-49
2023/06/28 00:12:35;;;;;;;1.00;0.70;;;;;;;18.48;100.00;98656.58;105578;1263;69747;-49
2023/06/28 00:15:04;;;;;;;1.70;0.70;;;;;;;18.45;100.00;98657.19;105553;1260;73444;-49
2023/06/28 00:17:33;;;;;;;1.30;0.70;;;;;;;18.43;100.00;98652.40;105129;1257;61756;-51
2023/06/28 00:20:10;;;;;;;5.30;0.70;;;;;;;18.40;100.00;98657.02;105226;1257;62077;-49
2023/06/28 00:22:39;;;;;;;2.80;0.60;;;;;;;18.37;100.00;98662.56;105099;1263;73278;-50
2023/06/28 00:25:08;;;;;;;1.50;0.60;;;;;;;18.35;100.00;98667.70;106108;1260;69513;-51
2023/06/28 00:27:36;;;;;;;3.20;0.60;;;;;;;18.33;100.00;98660.46;104804;1259;72579;-49
2023/06/28 00:30:06;;;;;;;0.50;0.50;;;;;;;18.31;100.00;98663.36;104614;1263;62213;-51
2023/06/28 00:32:34;;;;;;;0.80;0.70;;;;;;;18.27;100.00;98661.55;106198;1259;59063;-49
2023/06/28 00:35:02;;;;;;;0.80;0.50;;;;;;;18.25;100.00;98656.14;105006;1263;74956;-50
2023/06/28 00:37:30;;;;;;;0.90;0.50;;;;;;;18.25;100.00;98652.13;104644;1261;68648;-51
2023/06/28 00:39:59;;;;;;;1.30;0.60;;;;;;;18.24;100.00;98656.03;104670;1259;72673;-50
2023/06/28 00:42:27;;;;;;;0.70;0.50;;;;;;;18.24;100.00;98661.84;108601;1257;63487;-50
2023/06/28 00:44:55;;;;;;;1.80;0.50;;;;;;;18.23;100.00;98655.77;108689;1257;60142;-50
2023/06/28 00:47:22;;;;;;;1.60;1.10;;;;;;;18.22;100.00;98651.87;108627;1257;73557;-51
2023/06/28 00:49:54;;;;;;;2.00;0.70;;;;;;;18.20;100.00;98650.08;108641;1257;69082;-50
2023/06/28 00:52:28;;;;;;;0.70;0.60;;;;;;;18.20;100.00;98649.77;108785;1257;72647;-49
2023/06/28 00:55:03;;;;;;;4.90;0.50;;;;;;;18.20;100.00;98646.67;108425;1266;65881;-50
2023/06/28 00:57:33;;;;;;;0.80;0.60;;;;;;;18.21;100.00;98644.60;108681;1257;59149;-50
2023/06/28 01:00:12;;;;;;;1.40;0.90;;;;;;;18.21;100.00;98638.27;108673;1258;73527;-50
2023/06/28 01:02:50;;;;;;;1.50;0.70;;;;;;;18.20;100.00;98642.08;108761;1257;66863;-50
2023/06/28 01:05:22;;;;;;;1.50;0.70;;;;;;;18.19;100.00;98640.40;108656;1263;71062;-50
2023/06/28 01:07:50;;;;;;;1.70;0.60;;;;;;;18.16;100.00;98642.29;107832;1257;61773;-50
2023/06/28 01:10:18;;;;;;;0.70;0.60;;;;;;;18.12;100.00;98639.54;105473;1263;60202;-50
2023/06/28 01:12:48;;;;;;;1.20;0.60;;;;;;;18.10;100.00;98646.16;105385;1259;74761;-50
2023/06/28 01:15:17;;;;;;;0.70;0.60;;;;;;;18.07;100.00;98644.46;105408;1263;69741;-47
2023/06/28 01:17:47;;;;;;;0.70;0.60;;;;;;;18.05;100.00;98644.33;105763;1258;72730;-47
2023/06/28 01:20:20;;;;;;;1.00;0.60;;;;;;;18.02;100.00;98644.79;108378;1256;65079;-49
2023/06/28 01:22:54;;;;;;;0.80;0.60;;;;;;;17.99;100.00;98639.77;105191;1262;62251;-49
2023/06/28 01:25:22;;;;;;;1.00;0.60;;;;;;;17.97;100.00;98637.95;105494;1257;71700;-48
2023/06/28 01:27:50;;;;;;;0.70;0.50;;;;;;;17.96;100.00;98635.91;105784;1259;68431;-48
2023/06/28 01:30:18;;;;;;;0.50;0.50;;;;;;;17.95;100.00;98636.94;104964;1258;73171;-47
2023/06/28 01:32:49;;;;;;;1.10;0.50;;;;;;;17.93;100.00;98633.86;105029;1262;61857;-48
2023/06/28 01:35:17;;;;;;;0.70;0.60;;;;;;;17.91;100.00;98633.83;106649;1260;60992;-48
2023/06/28 01:37:44;;;;;;;1.20;1.10;;;;;;;17.89;100.00;98635.83;105205;1257;73107;-49
2023/06/28 01:40:13;;;;;;;1.20;0.50;;;;;;;17.86;100.00;98637.77;105124;1257;65527;-49
2023/06/28 01:42:41;;;;;;;1.40;0.60;;;;;;;17.85;100.00;98637.02;105150;1259;70437;-50
2023/06/28 01:45:09;;;;;;;2.30;0.50;;;;;;;17.83;100.00;98642.93;105133;1258;61624;-49
2023/06/28 01:47:36;;;;;;;0.90;0.50;;;;;;;17.81;100.00;98640.77;105156;1263;60064;-51
2023/06/28 01:50:08;;;;;;;2.40;0.90;;;;;;;17.80;100.00;98644.02;105266;1260;73068;-51
2023/06/28 01:52:37;;;;;;;0.90;0.60;;;;;;;17.78;100.00;98639.27;105977;1266;66637;-49
2023/06/28 01:55:05;;;;;;;1.90;0.60;;;;;;;17.75;100.00;98638.27;105231;1260;75304;-48
2023/06/28 01:57:43;;;;;;;1.60;0.60;;;;;;;17.72;100.00;98636.17;105703;1258;63837;-48
2023/06/28 02:00:12;;;;;;;2.30;0.60;;;;;;;17.70;100.00;98636.34;105356;1266;59930;-50
2023/06/28 02:02:43;;;;;;;1.00;0.60;;;;;;;17.68;100.00;98631.93;106003;1258;73088;-50
2023/06/28 02:05:11;;;;;;;1.60;0.60;;;;;;;17.66;100.00;98638.45;105572;1262;66585;-49
2023/06/28 02:07:41;;;;;;;3.70;0.60;;;;;;;17.64;100.00;98643.84;105721;1258;71294;-51
2023/06/28 02:10:12;;;;;;;1.50;0.80;;;;;;;17.65;100.00;98647.08;105178;1262;61714;-50
2023/06/28 02:12:40;;;;;;;1.10;0.70;;;;;;;17.64;100.00;98648.39;105197;1264;61731;-50
2023/06/28 02:15:14;;;;;;;2.80;0.80;;;;;;;17.63;100.00;98651.63;105245;1258;72858;-47
2023/06/28 02:17:43;;;;;;;3.60;0.70;;;;;;;17.62;100.00;98651.50;105313;1257;66829;-49
2023/06/28 02:20:12;;;;;;;2.40;0.70;;;;;;;17.60;100.00;98652.69;105571;1256;74721;-50
2023/06/28 02:22:40;;;;;;;1.60;0.80;;;;;;;17.58;100.00;98656.25;105142;1263;60426;-49
2023/06/28 02:25:12;;;;;;;1.30;0.70;;;;;;;17.54;100.00;98657.98;105435;1261;62696;-50
2023/06/28 02:27:40;;;;;;;3.00;0.60;;;;;;;17.52;100.00;98658.84;105646;1257;74446;-51
2023/06/28 02:30:11;;;;;;;2.40;0.60;;;;;;;17.50;100.00;98662.81;105270;1265;68873;-51
2023/06/28 02:32:43;;;;;;;0.70;0.50;;;;;;;17.49;100.00;98665.59;105483;1259;72009;-50
2023/06/28 02:35:17;;;;;;;2.10;0.60;;;;;;;17.47;100.00;98666.13;105206;1264;62598;-50
2023/06/28 02:37:47;;;;;;;0.60;0.60;;;;;;;17.48;100.00;98669.73;107025;1256;59893;-51
2023/06/28 02:40:17;;;;;;;1.10;0.60;;;;;;;17.47;100.00;98673.60;105178;1257;73492;-50
2023/06/28 02:42:48;;;;;;;0.90;0.90;;;;;;;17.46;100.00;98669.65;104963;1262;66467;-49
2023/06/28 02:45:15;;;;;;;1.20;0.70;;;;;;;17.47;100.00;98669.73;104961;1264;74077;-51
2023/06/28 02:47:43;;;;;;;1.50;0.60;;;;;;;17.48;100.00;98668.40;104996;1264;60141;-49
2023/06/28 02:50:10;;;;;;;0.70;0.60;;;;;;;17.49;100.00;98664.90;104943;1259;59644;-49
2023/06/28 02:52:48;;;;;;;2.40;0.70;;;;;;;17.48;100.00;98663.67;104458;1259;73362;-49
2023/06/28 02:55:15;;;;;;;0.80;0.60;;;;;;;17.47;100.00;98668.20;104638;1257;66504;-50
2023/06/28 02:57:46;;;;;;;4.00;0.90;;;;;;;17.44;100.00;98667.93;105273;1263;71763;-51
2023/06/28 03:00:16;;;;;;;1.30;0.60;;;;;;;17.40;100.00;98675.48;105667;1259;62823;-50
2023/06/28 03:02:44;;;;;;;1.70;0.50;;;;;;;17.36;100.00;98682.70;105507;1265;60483;-51
2023/06/28 03:05:12;;;;;;;1.30;0.60;;;;;;;17.35;100.00;98682.62;105333;1265;76629;-50
2023/06/28 03:07:41;;;;;;;3.10;0.50;;;;;;;17.36;100.00;98685.14;105732;1257;68014;-51
2023/06/28 03:10:09;;;;;;;1.10;0.50;;;;;;;17.36;100.00;98686.73;105321;1258;72641;-51
2023/06/28 03:12:37;;;;;;;2.70;0.50;;;;;;;17.36;100.00;98689.42;105522;1257;61341;-49
2023/06/28 03:15:06;;;;;;;1.20;0.60;;;;;;;17.36;100.00;98687.45;104606;1263;60543;-49
2023/06/28 03:17:34;;;;;;;3.40;0.60;;;;;;;17.35;100.00;98686.87;105252;1257;73047;-50
2023/06/28 03:20:02;;;;;;;3.20;0.50;;;;;;;17.30;100.00;98682.59;104742;1259;66891;-48
2023/06/28 03:22:30;;;;;;;1.20;0.50;;;;;;;17.25;100.00;98678.91;106159;1260;74006;-49
2023/06/28 03:24:58;;;;;;;0.70;0.40;;;;;;;17.22;100.00;98681.55;104917;1257;60504;-48
2023/06/28 03:27:26;;;;;;;1.00;0.50;;;;;;;17.21;100.00;98680.37;104756;1257;60493;-50
2023/06/28 03:29:54;;;;;;;1.90;0.40;;;;;;;17.19;100.00;98680.67;106471;1258;73292;-50
2023/06/28 03:32:21;;;;;;;5.60;0.70;;;;;;;17.19;100.00;98687.92;104721;1262;66341;-50
2023/06/28 03:34:49;;;;;;;0.60;0.40;;;;;;;17.21;100.00;98692.56;104725;1262;73274;-49
2023/06/28 03:37:19;;;;;;;0.80;0.50;;;;;;;17.21;100.00;98693.77;104577;1260;60489;-49
2023/06/28 03:39:48;;;;;;;0.80;0.50;;;;;;;17.22;100.00;98691.91;105025;1261;60529;-49
2023/06/28 03:42:16;;;;;;;1.40;0.60;;;;;;;17.21;100.00;98697.38;105141;1258;75217;-49
2023/06/28 03:44:44;;;;;;;1.90;0.50;;;;;;;17.20;100.00;98695.30;104781;1260;68343;-48
2023/06/28 03:47:12;;;;;;;1.50;0.60;;;;;;;17.17;100.00;98700.90;104890;1259;71646;-48
2023/06/28 03:49:40;;;;;;;1.10;0.50;;;;;;;17.14;100.00;98701.30;105222;1260;62632;-49
2023/06/28 03:52:08;;;;;;;2.60;0.50;;;;;;;17.13;100.00;98704.84;105265;1258;60597;-50
2023/06/28 03:54:35;;;;;;;0.80;0.80;;;;;;;17.12;100.00;98703.88;105292;1254;72605;-50
2023/06/28 03:57:03;;;;;;;0.90;0.40;;;;;;;17.09;100.00;98691.07;105297;1259;66634;-49
2023/06/28 03:59:30;;;;;;;2.30;0.60;;;;;;;17.09;100.00;98693.28;105158;1256;72792;-50
2023/06/28 04:01:57;;;;;;;1.40;0.80;;;;;;;17.08;100.00;98696.05;105238;1253;60480;-48
2023/06/28 04:04:25;;;;;;;1.00;0.50;;;;;;;17.05;100.00;98693.09;105136;1256;61021;-49
2023/06/28 04:06:53;;;;;;;4.50;0.50;;;;;;;17.02;100.00;98696.05;105275;1259;73792;-49
2023/06/28 04:09:20;;;;;;;1.00;0.40;;;;;;;17.00;100.00;98693.55;105213;1260;69897;-50
2023/06/28 04:11:48;;;;;;;5.70;0.60;;;;;;;17.00;100.00;98692.86;105161;1254;72638;-49
2023/06/28 04:14:15;;;;;;;3.30;0.50;;;;;;;16.99;100.00;98693.58;105190;1255;62214;-48
2023/06/28 04:16:43;;;;;;;4.20;0.50;;;;;;;17.01;100.00;98694.55;105145;1258;60560;-49
2023/06/28 04:19:11;;;;;;;1.50;0.50;;;;;;;17.06;100.00;98698.67;105225;1258;73925;-49
2023/06/28 04:21:39;;;;;;;0.70;0.50;;;;;;;17.12;100.00;98703.14;105144;1258;67877;-49
2023/06/28 04:24:08;;;;;;;2.00;0.60;;;;;;;17.20;100.00;98698.21;105137;1259;72877;-49
2023/06/28 04:26:36;;;;;;;1.10;0.50;;;;;;;17.26;100.00;98699.48;105250;1259;60619;-49
2023/06/28 04:29:03;;;;;;;0.70;0.50;;;;;;;17.28;100.00;98699.62;105177;1255;60580;-48
2023/06/28 04:31:30;;;;;;;0.80;0.40;;;;;;;17.30;100.00;98705.04;105260;1256;73847;-49
2023/06/28 04:33:59;;;;;;;1.20;0.40;;;;;;;17.31;100.00;98705.36;105103;1254;68526;-50
2023/06/28 04:36:27;;;;;;;1.70;0.50;;;;;;;17.32;100.00;98709.60;105284;1256;72607;-50
2023/06/28 04:38:54;;;;;;;2.00;0.60;;;;;;;17.35;100.00;98709.13;105310;1257;61678;-50
2023/06/28 04:41:23;;;;;;;1.40;0.40;;;;;;;17.38;100.00;98704.52;106045;1257;60413;-49
2023/06/28 04:43:55;;;;;;;0.80;0.40;;;;;;;17.36;100.00;98708.49;105310;1258;72636;-50
2023/06/28 04:46:29;;;;;;;1.20;0.50;;;;;;;17.34;100.00;98717.58;105165;1257;67002;-48
2023/06/28 04:48:56;;;;;;;0.70;0.50;;;;;;;17.29;100.00;98720.71;105254;1258;72821;-49
2023/06/28 04:51:24;;;;;;;0.50;0.40;;;;;;;17.23;100.00;98725.46;106553;1253;61735;-50
2023/06/28 04:53:52;;;;;;;1.50;0.40;;;;;;;17.18;100.00;98721.98;105772;1258;60442;-50
2023/06/28 04:56:19;;;;;;;0.80;0.40;;;;;;;17.13;100.00;98716.42;105843;1256;72677;-48
2023/06/28 04:58:46;;;;;;;0.90;0.40;;;;;;;17.09;100.00;98713.05;105239;1256;70011;-49
2023/06/28 05:01:14;;;;;;;1.10;0.50;;;;;;;17.08;100.00;98711.88;105237;1256;73211;-49
2023/06/28 05:03:42;;;;;;;0.70;0.50;;;;;;;17.13;100.00;98714.80;105962;1258;60490;-48
2023/06/28 05:06:10;;;;;;;0.80;0.40;;;;;;;17.21;100.00;98713.20;105952;1256;60459;-46
2023/06/28 05:08:37;;;;;;;0.50;0.40;;;;;;;17.28;100.00;98712.39;105269;1258;73943;-49
2023/06/28 05:11:04;;;;;;;0.80;0.40;;;;;;;17.36;100.00;98718.64;105324;1259;67860;-48
2023/06/28 05:13:31;;;;;;;3.40;0.40;;;;;;;17.43;100.00;98719.34;105226;1258;72451;-49
2023/06/28 05:15:59;;;;;;;2.40;0.30;;;;;;;17.48;100.00;98721.69;105143;1258;61660;-50
2023/06/28 05:18:26;;;;;;;1.00;0.30;;;;;;;17.57;100.00;98724.13;105294;1258;60819;-50
2023/06/28 05:20:54;;;;;;;0.80;0.40;;;;;;;17.68;100.00;98727.29;105252;1258;73829;-49
2023/06/28 05:23:21;;;;;;;0.40;0.30;;;;;;;17.78;100.00;98725.45;105381;1253;66819;-48
2023/06/28 05:25:48;;;;;;;1.00;0.30;;;;;;;17.85;100.00;98728.28;106379;1256;72707;-49
2023/06/28 05:28:16;;;;;;;0.40;0.30;;;;;;;17.91;100.00;98734.61;105287;1256;60624;-49
2023/06/28 05:30:43;;;;;;;1.30;0.30;;;;;;;17.93;100.00;98727.45;105241;1257;60473;-50
2023/06/28 05:33:11;;;;;;;2.80;0.30;;;;;;;17.96;100.00;98729.52;104805;1254;73482;-48
2023/06/28 05:35:42;;;;;;;1.10;0.30;;;;;;;18.02;100.00;98733.70;104867;1258;66316;-50
2023/06/28 05:38:09;;;;;;;1.10;0.30;;;;;;;18.08;100.00;98740.95;104786;1260;74788;-49
2023/06/28 05:40:36;;;;;;;0.60;0.30;;;;;;;18.15;100.00;98744.10;104900;1256;61640;-50
2023/06/28 05:43:04;;;;;;;3.10;0.30;;;;;;;18.24;100.00;98741.06;105106;1253;61706;-51
2023/06/28 05:45:31;;;;;;;1.20;0.30;;;;;;;18.35;100.00;98745.45;104975;1255;73827;-50
2023/06/28 05:47:59;;;;;;;0.60;0.30;;;;;;;18.39;100.00;98743.55;105157;1255;68545;-49
2023/06/28 05:50:27;;;;;;;0.30;0.20;;;;;;;18.41;100.00;98747.21;104990;1256;72660;-50
2023/06/28 05:52:55;;;;;;;1.00;0.30;;;;;;;18.40;100.00;98751.09;105011;1256;60540;-51
2023/06/28 05:55:22;;;;;;;0.70;0.20;;;;;;;18.36;100.00;98758.05;105150;1259;61028;-50
2023/06/28 05:57:49;;;;;;;0.40;0.30;;;;;;;18.34;100.00;98756.05;105337;1259;74282;-51
2023/06/28 06:00:17;;;;;;;0.90;0.30;;;;;;;18.31;100.00;98760.16;105275;1254;67138;-50
2023/06/28 06:02:44;;;;;;;1.60;0.20;;;;;;;18.30;100.00;98753.75;104918;1255;71842;-49
2023/06/28 06:05:13;;;;;;;1.00;0.20;;;;;;;18.27;100.00;98756.17;104902;1254;60513;-50
2023/06/28 06:07:41;;;;;;;0.80;0.30;;;;;;;18.29;100.00;98757.79;105570;1256;60409;-48
2023/06/28 06:10:09;;;;;;;0.60;0.20;;;;;;;18.31;100.00;98756.55;105329;1258;73835;-49
2023/06/28 06:12:37;;;;;;;0.30;0.30;;;;;;;18.32;100.00;98756.58;105660;1254;67879;-50
2023/06/28 06:15:05;;;;;;;0.40;0.30;;;;;;;18.30;100.00;98759.91;106483;1254;72649;-51
2023/06/28 06:17:33;;;;;;;0.30;0.30;;;;;;;18.26;100.00;98746.65;105651;1258;60738;-51
2023/06/28 06:20:01;;;;;;;0.70;0.20;;;;;;;18.27;100.00;98754.60;105713;1256;60470;-50
2023/06/28 06:22:28;;;;;;;0.40;0.20;;;;;;;18.26;100.00;98754.63;104821;1259;73786;-51
2023/06/28 06:24:56;;;;;;;0.30;0.20;;;;;;;18.27;100.00;98751.34;105157;1256;66814;-50
2023/06/28 06:27:23;;;;;;;0.60;0.30;;;;;;;18.29;100.00;98760.48;105232;1259;73235;-50
2023/06/28 06:29:50;;;;;;;1.40;0.30;;;;;;;18.31;100.00;98768.52;104736;1254;60589;-49
2023/06/28 06:32:17;;;;;;;0.50;0.30;;;;;;;18.32;100.00;98767.11;104905;1255;60520;-49
2023/06/28 06:34:45;;;;;;;0.40;0.30;;;;;;;18.34;100.00;98766.80;104961;1258;74943;-50
2023/06/28 06:37:13;;;;;;;0.40;0.20;;;;;;;18.32;100.00;98766.65;105301;1260;67515;-51
2023/06/28 06:39:41;;;;;;;3.60;0.30;;;;;;;18.27;100.00;98763.77;105258;1259;72958;-51
2023/06/28 06:42:08;;;;;;;2.20;0.40;;;;;;;18.25;100.00;98769.48;105242;1258;60323;-49
2023/06/28 06:44:36;;;;;;;0.30;0.30;;;;;;;18.26;100.00;98772.98;105197;1256;61726;-51
2023/06/28 06:47:04;;;;;;;0.90;0.30;;;;;;;18.31;100.00;98773.45;108815;1253;72944;-51
2023/06/28 06:49:31;;;;;;;0.30;0.30;;;;;;;18.38;100.00;98781.30;108862;1254;65569;-50
2023/06/28 06:51:59;;;;;;;5.20;0.20;;;;;;;18.45;100.00;98778.05;108887;1255;72108;-51
2023/06/28 06:54:29;;;;;;;0.30;0.30;;;;;;;18.52;100.00;98777.19;108849;1254;60117;-50
2023/06/28 06:57:02;;;;;;;0.20;0.20;;;;;;;18.57;100.00;98786.71;108903;1254;60035;-51
2023/06/28 06:59:29;;;;;;;0.20;0.20;;;;;;;18.64;100.00;98798.63;108897;1258;72693;-50
2023/06/28 07:01:56;;;;;;;1.70;0.20;;;;;;;18.72;100.00;98796.70;108873;1254;67694;-50
2023/06/28 07:04:24;;;;;;;0.60;0.20;;;;;;;18.76;100.00;98799.59;108908;1256;71360;-50
2023/06/28 07:06:52;;;;;;;0.20;0.20;;;;;;;18.77;100.00;98799.48;107309;1258;60543;-49
2023/06/28 07:09:19;;;;;;;0.20;0.20;;;;;;;18.79;100.00;98801.14;104530;1256;62196;-49
2023/06/28 07:11:46;;;;;;;0.90;0.30;;;;;;;18.81;100.00;98806.70;104378;1257;73787;-50
2023/06/28 07:14:14;;;;;;;0.30;0.30;;;;;;;18.83;100.00;98810.86;108874;1256;68478;-51
2023/06/28 07:16:44;;;;;;;0.50;0.20;;;;;;;18.91;100.00;98804.16;108747;1255;72743;-49
2023/06/28 07:19:12;;;;;;;0.60;0.20;;;;;;;19.04;100.00;98807.26;108934;1254;58825;-50
2023/06/28 07:21:41;;;;;;;0.40;0.30;;;;;;;19.17;100.00;98807.73;105252;1256;60454;-47
2023/06/28 07:24:08;;;;;;;1.60;0.20;;;;;;;19.28;100.00;98809.52;105346;1258;73346;-49
2023/06/28 07:26:36;;;;;;;0.50;0.20;;;;;;;19.38;100.00;98816.54;105288;1259;68007;-47
2023/06/28 07:29:03;;;;;;;0.60;0.30;;;;;;;19.46;100.00;98807.04;105170;1253;72774;-48
2023/06/28 07:31:31;;;;;;;0.30;0.30;;;;;;;19.52;100.00;98806.98;105212;1259;61520;-49
2023/06/28 07:33:58;;;;;;;1.90;0.20;;;;;;;19.56;100.00;98811.67;105118;1259;62853;-49
2023/06/28 07:36:27;;;;;;;0.30;0.20;;;;;;;19.62;100.00;98813.27;108594;1254;73826;-51
2023/06/28 07:38:59;;;;;;;0.20;0.10;;;;;;;19.69;100.00;98809.52;107686;1256;66334;-49
2023/06/28 07:41:27;;;;;;;0.20;0.20;;;;;;;19.73;100.00;98807.77;105565;1257;72556;-49
2023/06/28 07:43:55;;;;;;;0.40;0.30;;;;;;;19.78;100.00;98815.71;105347;1254;60455;-49
2023/06/28 07:46:22;;;;;;;0.80;0.30;;;;;;;19.84;100.00;98818.11;105203;1259;59588;-49
2023/06/28 07:48:51;;;;;;;2.20;0.30;;;;;;;19.91;100.00;98818.69;105234;1254;73474;-50
2023/06/28 07:51:18;;;;;;;0.40;0.30;;;;;;;19.99;100.00;98818.44;105293;1262;67158;-50
2023/06/28 07:53:46;;;;;;;1.00;0.20;;;;;;;20.06;100.00;98824.86;105173;1259;72722;-50
2023/06/28 07:56:13;;;;;;;0.20;0.20;;;;;;;20.08;100.00;98829.73;105291;1262;60487;-49
2023/06/28 07:58:40;;;;;;;0.40;0.20;;;;;;;20.06;100.00;98831.41;105234;1258;60518;-48
2023/06/28 08:01:08;;;;;;;0.30;0.20;;;;;;;20.02;100.00;98832.26;105289;1259;73801;-50
2023/06/28 08:03:35;;;;;;;0.30;0.30;;;;;;;19.95;100.00;98821.98;105196;1259;67612;-50
2023/06/28 08:06:03;;;;;;;0.80;0.20;;;;;;;19.84;100.00;98821.08;105323;1260;71501;-49
2023/06/28 08:08:30;;;;;;;0.20;0.20;;;;;;;19.79;100.00;98823.27;105251;1259;60550;-49
2023/06/28 08:10:58;;;;;;;1.60;0.20;;;;;;;19.77;100.00;98820.87;105362;1258;60464;-49
2023/06/28 08:13:25;;;;;;;0.40;0.20;;;;;;;19.82;100.00;98819.08;105144;1254;72670;-50
2023/06/28 08:15:52;;;;;;;0.20;0.20;;;;;;;19.88;100.00;98823.08;105207;1258;67035;-49
2023/06/28 08:18:20;;;;;;;0.30;0.20;;;;;;;19.94;100.00;98819.54;106991;1259;73349;-50
2023/06/28 08:20:47;;;;;;;0.30;0.10;;;;;;;19.97;100.00;98823.34;105069;1256;60561;-49
2023/06/28 08:23:16;;;;;;;0.30;0.20;;;;;;;20.04;100.00;98822.24;105454;1254;60978;-50
2023/06/28 08:25:43;;;;;;;1.60;0.20;;;;;;;20.14;100.00;98823.49;105688;1259;73829;-50
2023/06/28 08:28:11;;;;;;;0.70;0.40;;;;;;;20.24;100.00;98819.66;105346;1259;67872;-50
2023/06/28 08:30:38;;;;;;;0.60;0.20;;;;;;;20.36;100.00;98820.29;105275;1259;72682;-49
2023/06/28 08:33:06;;;;;;;1.80;0.20;;;;;;;20.48;100.00;98823.06;105184;1259;60853;-50
2023/06/28 08:35:33;;;;;;;0.20;0.10;;;;;;;20.61;100.00;98825.14;106424;1257;60549;-50
2023/06/28 08:38:01;;;;;;;0.20;0.10;;;;;;;20.69;100.00;98821.23;105167;1259;72703;-49
2023/06/28 08:40:29;;;;;;;0.30;0.20;;;;;;;20.70;100.00;98821.96;105046;1262;67710;-50
2023/06/28 08:43:00;;;;;;;0.20;0.20;;;;;;;20.69;100.00;98820.13;104347;1254;73266;-51
2023/06/28 08:45:27;;;;;;;0.10;0.10;;;;;;;20.67;100.00;98822.30;108335;1259;59376;-51
2023/06/28 08:47:55;;;;;;;0.40;0.20;;;;;;;20.66;100.00;98818.45;104547;1256;60541;-51
2023/06/28 08:50:22;;;;;;;0.30;0.20;;;;;;;20.62;100.00;98812.44;105223;1260;73822;-50
2023/06/28 08:52:50;;;;;;;1.50;0.20;;;;;;;20.62;100.00;98815.89;105307;1256;67190;-50
2023/06/28 08:55:20;;;;;;;0.30;0.20;;;;;;;20.62;100.00;98814.80;105265;1258;72742;-50
2023/06/28 08:57:48;;;;;;;1.10;0.20;;;;;;;20.60;100.00;98816.56;105053;1258;60671;-51
2023/06/28 09:00:16;;;;;;;0.30;0.10;;;;;;;20.53;100.00;98815.81;104998;1262;60330;-50
2023/06/28 09:02:43;;;;;;;2.30;1.00;;;;;;;20.50;100.00;98808.23;105138;1259;72609;-49
2023/06/28 09:05:11;;;;;;;0.60;0.20;;;;;;;20.52;100.00;98810.65;106454;1258;67922;-51
2023/06/28 09:07:39;;;;;;;0.90;0.10;;;;;;;20.61;100.00;98812.42;105159;1260;71380;-51
2023/06/28 09:10:08;;;;;;;0.10;0.10;;;;;;;20.69;100.00;98815.23;107807;1258;63686;-51
2023/06/28 09:12:35;;;;;;;3.30;0.20;;;;;;;20.75;100.00;98818.73;106123;1259;60646;-51
2023/06/28 09:15:04;;;;;;;0.30;0.10;;;;;;;20.82;100.00;98818.55;105228;1262;76253;-51
2023/06/28 09:17:31;;;;;;;0.30;0.20;;;;;;;20.86;100.00;98810.64;105221;1254;66222;-50
2023/06/28 09:20:15;;;;;;;0.60;0.20;;;;;;;20.86;100.00;98813.75;105765;1260;71289;-49
2023/06/28 09:22:42;;;;;;;0.30;0.20;;;;;;;20.85;100.00;98810.26;104998;1259;60549;-50
2023/06/28 09:25:12;;;;;;;0.20;0.10;;;;;;;20.93;100.00;98815.62;104705;1259;60533;-50
2023/06/28 09:27:41;;;;;;;0.50;0.10;;;;;;;21.06;100.00;98813.81;105168;1254;74395;-50
2023/06/28 09:30:27;;;;;;;0.40;0.30;;;;;;;21.20;100.00;98814.39;105255;1259;67445;-49
2023/06/28 09:32:55;;;;;;;0.20;0.20;;;;;;;21.30;100.00;98823.16;105260;1259;73338;-51
2023/06/28 09:35:23;;;;;;;1.50;0.20;;;;;;;21.30;100.00;98817.86;105130;1256;60451;-50
2023/06/28 09:37:54;;;;;;;2.80;0.20;;;;;;;21.26;100.00;98818.42;105195;1259;60959;-51
2023/06/28 09:40:21;;;;;;;0.40;0.30;;;;;;;21.22;100.00;98810.82;106175;1259;72591;-50
2023/06/28 09:42:49;;;;;;;0.30;0.10;;;;;;;21.18;100.00;98806.38;105227;1259;67734;-51
2023/06/28 09:45:25;;;;;;;0.50;0.40;;;;;;;21.15;100.00;98805.35;104673;1261;72616;-51
2023/06/28 09:47:58;;;;;;;1.50;0.20;;;;;;;21.04;100.00;98806.59;108700;1254;59154;-52
2023/06/28 09:50:41;;;;;;;0.30;0.10;;;;;;;20.96;100.00;98818.30;108890;1254;62036;-51
2023/06/28 09:53:16;;;;;;;0.30;0.20;;;;;;;20.92;100.00;98823.89;105049;1259;73846;-51
2023/06/28 09:55:44;;;;;;;3.70;0.20;;;;;;;20.81;100.00;98825.21;108859;1254;67582;-51
2023/06/28 09:58:19;;;;;;;1.90;0.20;;;;;;;20.72;100.00;98824.40;108880;1254;72677;-51
2023/06/28 10:00:48;;;;;;;2.00;0.20;;;;;;;20.64;100.00;98826.23;108868;1254;60045;-52
2023/06/28 10:03:17;;;;;;;0.30;0.10;;;;;;;20.61;100.00;98817.89;105631;1254;60534;-51
2023/06/28 10:05:45;;;;;;;0.40;0.10;;;;;;;20.63;100.00;98823.14;108792;1254;72701;-51
2023/06/28 10:08:14;;;;;;;2.10;0.20;;;;;;;20.65;100.00;98826.55;106696;1259;65689;-50
2023/06/28 10:10:42;;;;;;;0.20;0.10;;;;;;;20.63;100.00;98830.97;104470;1254;71231;-50
2023/06/28 10:13:12;;;;;;;3.10;0.20;;;;;;;20.62;100.00;98825.36;108818;1254;58881;-51
2023/06/28 10:15:46;;;;;;;0.20;0.10;;;;;;;20.71;100.00;98819.38;108644;1259;59073;-50
2023/06/28 10:18:13;;;;;;;0.30;0.20;;;;;;;20.85;100.00;98820.25;108979;1256;73921;-51
2023/06/28 10:20:41;;;;;;;1.10;0.20;;;;;;;20.96;100.00;98813.38;108856;1255;65671;-51
2023/06/28 10:23:11;;;;;;;1.40;0.20;;;;;;;21.05;100.00;98812.88;108888;1254;71523;-52
2023/06/28 10:25:42;;;;;;;1.30;0.20;;;;;;;21.10;100.00;98812.08;108919;1254;59203;-52
2023/06/28 10:28:10;;;;;;;0.60;0.10;;;;;;;21.16;100.00;98812.00;105747;1260;60555;-52
2023/06/28 10:30:39;;;;;;;24.10;4.80;;;;;;;21.25;100.00;98814.20;104594;1260;73824;-52
2023/06/28 10:33:07;;;;;;;2.30;0.40;;;;;;;21.30;100.00;98812.69;104846;1259;67460;-50
2023/06/28 10:35:35;;;;;;;0.80;0.20;;;;;;;21.29;100.00;98810.83;104820;1260;73038;-50
2023/06/28 10:38:03;;;;;;;3.20;0.20;;;;;;;21.31;100.00;98810.58;105031;1261;60668;-51
2023/06/28 10:40:31;;;;;;;1.10;0.20;;;;;;;21.40;100.00;98807.97;104970;1254;61097;-50
2023/06/28 10:42:58;;;;;;;0.70;0.20;;;;;;;21.51;100.00;98813.52;104732;1257;73838;-51
2023/06/28 10:45:35;;;;;;;0.70;0.10;;;;;;;21.61;100.00;98820.85;104766;1261;65643;-51
2023/06/28 10:48:04;;;;;;;3.90;0.30;;;;;;;21.62;100.00;98814.52;104673;1261;70810;-51
2023/06/28 10:50:41;;;;;;;2.50;0.20;;;;;;;21.58;100.00;98799.11;107117;1257;60522;-52
2023/06/28 10:53:28;;;;;;;1.20;0.10;;;;;;;21.58;100.00;98811.91;105020;1259;60501;-51
2023/06/28 10:56:07;;;;;;;0.30;0.20;;;;;;;21.63;100.00;98808.25;105750;1254;74401;-52
2023/06/28 10:58:37;;;;;;;4.10;0.20;;;;;;;21.68;100.00;98808.92;106038;1259;65506;-51
2023/06/28 11:01:06;;;;;;;1.50;0.20;;;;;;;21.70;100.00;98805.30;105892;1254;229080;-49
2023/06/28 11:05:10;;;;;;;0.20;0.10;;;;;;;21.73;100.00;98803.48;101724;1292;600331;-51
2023/06/28 11:07:41;;;;;;;0.70;0.20;;;;;;;21.77;100.00;98811.96;103977;1270;59373;-50
2023/06/28 11:10:16;;;;;;;0.60;0.20;;;;;;;21.84;100.00;98805.54;103526;1264;63134;-50
2023/06/28 11:12:47;;;;;;;1.40;0.20;;;;;;;21.87;100.00;98797.73;107080;1262;71106;-49
2023/06/28 11:15:28;;;;;;;0.40;0.20;;;;;;;21.87;100.00;98793.17;104134;1262;66062;-51
2023/06/28 11:18:07;;;;;;;0.70;0.20;;;;;;;21.89;100.00;98793.15;104026;1254;227824;-51
2023/06/28 11:20:48;;;;;;;0.20;0.10;;;;;;;21.99;100.00;98794.11;104886;1256;59389;-51
2023/06/28 11:23:23;;;;;;;0.80;0.20;;;;;;;22.09;100.00;98795.55;104461;1260;59167;-51
2023/06/28 11:25:55;;;;;;;2.60;0.20;;;;;;;22.11;100.00;98792.40;105417;1257;71418;-50